Time;durP1;ratioP1;P1;durP2;ratioP2;P2;SDS_P1;SDS_P2;PMS_P1;PMS_P2;Temp;Humidity;BMP_temperature;BMP_pressure;BME280_temperature;BME280_humidity;BME280_pressure;Samples;Min_cycle;Max_cycle;Signal;HPM_P1;HPM_P2
2021/09/18 00:02:11;;;;;;;3.00;1.80;;;;;;;14.11;78.03;101632.03;4998967;28;20614;-77
2021/09/18 00:04:36;;;;;;;4.70;2.43;;;;;;;14.10;77.67;101630.31;5015319;28;20664;-77
2021/09/18 00:07:02;;;;;;;3.00;1.90;;;;;;;14.10;77.71;101626.84;5015531;28;20650;-77
2021/09/18 00:09:27;;;;;;;1.97;1.77;;;;;;;14.12;77.54;101630.31;4999817;28;20551;-77
2021/09/18 00:11:53;;;;;;;4.03;2.37;;;;;;;14.12;78.12;101627.72;5015946;28;20207;-77
2021/09/18 00:14:20;;;;;;;2.67;2.40;;;;;;;14.10;77.99;101632.88;5016313;28;20183;-77
2021/09/18 00:16:46;;;;;;;2.70;2.30;;;;;;;14.12;78.28;101630.31;5016322;28;20209;-77
2021/09/18 00:19:11;;;;;;;3.17;2.17;;;;;;;14.08;77.93;101628.53;5018292;28;20183;-77
2021/09/18 00:21:37;;;;;;;3.07;2.70;;;;;;;14.09;78.50;101636.25;5018550;28;20206;-77
2021/09/18 00:24:03;;;;;;;5.33;2.90;;;;;;;14.08;78.71;101631.97;5018750;28;20726;-77
2021/09/18 00:26:32;;;;;;;3.73;3.20;;;;;;;14.09;78.30;101633.69;5018977;28;20191;-77
2021/09/18 00:28:57;;;;;;;4.97;3.20;;;;;;;14.11;78.30;101628.56;5019018;28;20213;-77
2021/09/18 00:31:22;;;;;;;4.03;3.03;;;;;;;14.10;78.46;101630.31;5018818;28;20799;-77
2021/09/18 00:33:47;;;;;;;3.87;3.40;;;;;;;14.12;78.89;101627.72;5018812;28;20676;-77
2021/09/18 00:36:13;;;;;;;4.10;3.07;;;;;;;14.11;78.72;101631.16;5019334;28;20179;-77
2021/09/18 00:38:38;;;;;;;6.17;3.40;;;;;;;14.11;78.59;101633.72;5018017;28;20606;-77
2021/09/18 00:41:04;;;;;;;6.20;3.93;;;;;;;14.12;78.71;101630.31;5020970;28;20199;-77
2021/09/18 00:43:29;;;;;;;6.27;3.80;;;;;;;14.12;78.74;101630.31;5018186;28;20254;-77
2021/09/18 00:45:54;;;;;;;4.47;3.70;;;;;;;14.13;78.92;101637.22;5002098;28;20194;-77
2021/09/18 00:48:20;;;;;;;5.53;3.80;;;;;;;14.11;79.58;101636.31;5018413;28;20990;-77
2021/09/18 00:50:45;;;;;;;4.30;3.50;;;;;;;14.10;79.81;101638.03;5019866;28;20632;-76
2021/09/18 00:53:10;;;;;;;5.00;4.13;;;;;;;14.09;79.72;101638.84;5018052;28;20766;-77
2021/09/18 00:55:36;;;;;;;6.97;4.07;;;;;;;14.11;79.43;101642.34;5017766;28;20834;-77
2021/09/18 00:58:02;;;;;;;5.03;3.97;;;;;;;14.10;79.50;101634.56;5020103;28;20207;-77
2021/09/18 01:00:27;;;;;;;6.70;3.80;;;;;;;14.12;79.45;101643.19;5019645;28;20211;-77
2021/09/18 01:02:52;;;;;;;4.90;3.70;;;;;;;14.12;79.55;101638.03;5019764;28;20183;-77
2021/09/18 01:05:19;;;;;;;5.07;3.73;;;;;;;14.13;79.67;101642.38;5019623;28;20267;-76
2021/09/18 01:07:44;;;;;;;5.50;3.80;;;;;;;14.12;79.86;101638.03;5020345;28;20170;-77
2021/09/18 01:10:10;;;;;;;6.77;4.03;;;;;;;14.12;79.84;101643.19;5019483;28;20203;-77
2021/09/18 01:12:56;;;;;;;4.97;4.00;;;;;;;14.12;80.26;101638.03;5002274;28;20183;-77
2021/09/18 01:15:22;;;;;;;5.93;4.10;;;;;;;14.13;80.33;101642.38;5018341;28;20231;-77
2021/09/18 01:17:47;;;;;;;6.20;4.03;;;;;;;14.12;80.01;101643.19;5018245;28;20306;-77
2021/09/18 01:20:12;;;;;;;7.17;4.77;;;;;;;14.12;80.59;101640.59;5018128;28;20214;-77
2021/09/18 01:22:38;;;;;;;5.13;4.10;;;;;;;14.10;80.71;101642.31;5018691;28;20233;-76
2021/09/18 01:25:03;;;;;;;7.50;4.00;;;;;;;14.11;80.46;101647.50;5020195;28;20543;-78
2021/09/18 01:27:29;;;;;;;6.60;5.07;;;;;;;14.12;80.22;101646.63;5018180;28;20262;-76
2021/09/18 01:29:54;;;;;;;5.70;4.77;;;;;;;14.13;80.92;101647.53;4999976;28;20222;-77
2021/09/18 01:32:21;;;;;;;7.03;4.90;;;;;;;14.12;80.41;101649.22;5017938;28;20230;-77
2021/09/18 01:34:49;;;;;;;6.30;5.00;;;;;;;14.12;80.36;101648.34;5018630;28;20667;-77
2021/09/18 01:37:14;;;;;;;6.47;5.27;;;;;;;14.13;80.88;101648.38;5016921;28;20207;-77
2021/09/18 01:39:39;;;;;;;7.43;5.07;;;;;;;14.14;80.92;101644.94;5017186;28;20274;-77
2021/09/18 01:42:05;;;;;;;7.23;5.30;;;;;;;14.13;81.97;101650.09;5015793;28;20257;-77
2021/09/18 01:44:30;;;;;;;6.00;5.30;;;;;;;14.11;82.07;101644.91;5017348;28;20187;-77
2021/09/18 01:46:55;;;;;;;7.93;6.17;;;;;;;14.10;82.82;101652.59;5017285;28;20540;-77
2021/09/18 01:49:20;;;;;;;7.87;6.57;;;;;;;14.05;83.17;101646.50;5019131;28;20195;-77
2021/09/18 01:52:00;;;;;;;9.23;6.37;;;;;;;14.03;83.54;101646.47;5017357;28;20207;-77
2021/09/18 01:54:28;;;;;;;9.47;6.37;;;;;;;14.02;83.63;101647.31;5018146;28;20175;-76
2021/09/18 01:56:54;;;;;;;8.30;7.03;;;;;;;14.01;84.29;101647.28;5018553;28;20624;-76
2021/09/18 01:59:19;;;;;;;9.80;7.57;;;;;;;14.00;84.27;101661.00;5016724;28;20195;-77
2021/09/18 02:01:44;;;;;;;12.00;7.83;;;;;;;13.98;84.82;101660.09;5000277;28;20630;-77
2021/09/18 02:04:09;;;;;;;10.13;7.40;;;;;;;13.98;84.75;101657.50;5016174;28;20191;-77
2021/09/18 02:06:35;;;;;;;10.33;7.47;;;;;;;13.99;84.70;101656.69;5016401;28;20198;-77
2021/09/18 02:09:00;;;;;;;9.93;7.97;;;;;;;13.98;84.94;101650.66;5016368;28;20215;-77
2021/09/18 02:11:25;;;;;;;10.00;7.50;;;;;;;13.97;84.46;101651.53;5016798;28;20215;-77
2021/09/18 02:13:51;;;;;;;8.57;7.13;;;;;;;13.96;84.33;101649.78;5016319;28;20198;-77
2021/09/18 02:16:16;;;;;;;9.97;7.77;;;;;;;13.98;84.41;101654.94;5015653;28;20187;-77
2021/09/18 02:18:41;;;;;;;10.20;7.87;;;;;;;13.98;84.74;101657.50;5018130;28;20229;-77
2021/09/18 02:21:07;;;;;;;9.10;7.70;;;;;;;13.97;85.35;101651.53;5015737;28;20775;-77
2021/09/18 02:23:33;;;;;;;9.23;8.07;;;;;;;13.98;85.12;101660.09;5016750;28;20194;-77
2021/09/18 02:25:58;;;;;;;10.23;7.80;;;;;;;13.94;85.85;101659.19;5015755;28;20587;-77
2021/09/18 02:28:23;;;;;;;9.90;8.23;;;;;;;13.96;85.25;101661.78;5018166;28;20187;-77
2021/09/18 02:30:49;;;;;;;10.60;8.17;;;;;;;13.94;85.02;101656.59;5015882;28;20211;-77
2021/09/18 02:33:14;;;;;;;10.07;7.90;;;;;;;13.94;85.43;101660.88;5017527;28;20645;-77
2021/09/18 02:35:40;;;;;;;10.90;8.37;;;;;;;13.97;84.70;101655.78;5017342;28;20601;-77
2021/09/18 02:38:06;;;;;;;10.43;8.93;;;;;;;14.00;85.14;101661.00;5016489;28;20215;-77
2021/09/18 02:40:35;;;;;;;10.00;8.23;;;;;;;13.99;85.03;101648.97;5015930;28;20227;-77
2021/09/18 02:43:02;;;;;;;11.33;8.77;;;;;;;13.97;85.24;101658.38;5017724;28;20642;-77
2021/09/18 02:45:28;;;;;;;10.47;7.87;;;;;;;13.96;84.82;101665.25;5016369;28;20341;-77
2021/09/18 02:47:53;;;;;;;11.63;8.67;;;;;;;13.97;85.03;101661.81;5015531;28;20179;-77
2021/09/18 02:50:20;;;;;;;10.73;8.47;;;;;;;13.99;84.97;101661.84;5016576;28;20207;-77
2021/09/18 02:52:46;;;;;;;10.50;8.87;;;;;;;14.00;85.12;101664.44;5017392;28;20191;-77
2021/09/18 02:55:12;;;;;;;13.03;8.73;;;;;;;14.00;85.62;101666.16;5016127;28;20184;-77
2021/09/18 02:57:39;;;;;;;10.17;8.33;;;;;;;14.00;85.14;101656.69;5017112;28;20310;-77
2021/09/18 03:00:06;;;;;;;10.10;8.33;;;;;;;14.02;85.68;101664.47;4999963;28;20215;-77
2021/09/18 03:02:32;;;;;;;10.37;8.60;;;;;;;14.01;85.73;101660.16;5016058;28;20293;-77
2021/09/18 03:04:57;;;;;;;13.57;9.53;;;;;;;13.98;85.93;101657.50;5015177;28;20214;-77
2021/09/18 03:07:22;;;;;;;10.03;8.20;;;;;;;13.99;85.60;101667.84;5015689;28;20202;-77
2021/09/18 03:09:48;;;;;;;11.83;9.20;;;;;;;14.01;85.98;101668.78;5017127;28;20203;-77
2021/09/18 03:12:13;;;;;;;12.63;9.57;;;;;;;14.01;85.74;101655.88;5016085;28;20245;-77
2021/09/18 03:14:38;;;;;;;13.93;9.50;;;;;;;14.00;85.88;101663.59;5015461;28;20195;-77
2021/09/18 03:17:04;;;;;;;10.13;8.43;;;;;;;14.01;86.66;101660.16;5016400;28;20175;-77
2021/09/18 03:19:29;;;;;;;12.00;8.50;;;;;;;14.01;85.39;101668.78;5014764;28;20206;-77
2021/09/18 03:21:54;;;;;;;12.47;9.27;;;;;;;14.01;85.74;101665.31;5017350;28;20215;-77
2021/09/18 03:24:20;;;;;;;10.10;8.77;;;;;;;14.02;86.23;101662.78;5017400;28;20183;-77
2021/09/18 03:26:45;;;;;;;13.03;9.70;;;;;;;13.99;85.80;101660.13;5015270;28;20199;-77
2021/09/18 03:29:11;;;;;;;11.60;9.77;;;;;;;14.01;86.13;101657.59;5015517;28;20195;-77
2021/09/18 03:31:36;;;;;;;12.20;10.43;;;;;;;14.03;85.61;101658.47;5016767;28;20203;-77
2021/09/18 03:34:02;;;;;;;11.30;9.60;;;;;;;14.03;85.67;101655.88;5017191;28;20211;-77
2021/09/18 03:36:27;;;;;;;11.77;9.73;;;;;;;14.02;86.04;101657.63;5017228;28;20194;-77
2021/09/18 03:38:53;;;;;;;13.17;9.73;;;;;;;14.04;86.16;101662.81;5014595;28;20222;-77
2021/09/18 03:41:18;;;;;;;12.77;9.43;;;;;;;14.02;86.10;101659.31;5015041;28;20203;-77
2021/09/18 03:43:44;;;;;;;11.53;9.97;;;;;;;14.03;86.51;101661.03;5016918;28;20190;-78
2021/09/18 03:46:09;;;;;;;13.93;10.70;;;;;;;14.01;86.36;101667.88;5016647;28;20183;-77
2021/09/18 03:48:34;;;;;;;11.70;10.00;;;;;;;14.02;85.92;101673.06;4999331;28;20676;-77
2021/09/18 03:51:00;;;;;;;13.17;10.83;;;;;;;14.03;85.60;101676.50;5018047;28;20575;-77
2021/09/18 03:53:25;;;;;;;11.97;9.63;;;;;;;14.05;85.44;101673.09;5016389;28;20225;-77
2021/09/18 03:55:51;;;;;;;14.43;10.43;;;;;;;14.05;86.07;101679.97;5015035;28;20183;-77
2021/09/18 03:58:16;;;;;;;13.80;11.00;;;;;;;14.06;86.11;101674.00;5015071;28;20250;-77
2021/09/18 04:00:42;;;;;;;14.07;10.90;;;;;;;14.06;85.75;101669.72;5016273;28;20207;-77
2021/09/18 04:03:07;;;;;;;13.40;10.23;;;;;;;14.05;86.60;101672.25;4998145;28;20202;-77
2021/09/18 04:05:33;;;;;;;13.37;10.33;;;;;;;14.05;86.30;101674.84;5014414;28;20202;-77
2021/09/18 04:07:58;;;;;;;12.93;10.37;;;;;;;14.03;86.31;101672.22;5016631;28;20179;-77
2021/09/18 04:10:23;;;;;;;13.97;10.67;;;;;;;14.04;86.48;101671.38;5014706;28;20214;-77
2021/09/18 04:12:49;;;;;;;13.20;10.77;;;;;;;14.03;86.60;101671.34;5014967;28;20218;-77
2021/09/18 04:15:14;;;;;;;11.33;10.13;;;;;;;14.03;86.79;101671.34;5015608;28;20187;-77
2021/09/18 04:17:39;;;;;;;12.63;10.73;;;;;;;13.99;87.25;101675.56;5014682;28;20269;-77
2021/09/18 04:20:06;;;;;;;11.47;9.97;;;;;;;13.97;86.86;101677.28;5014537;28;20215;-77
2021/09/18 04:22:31;;;;;;;12.40;10.27;;;;;;;13.99;86.60;101679.88;5013171;28;20175;-77
2021/09/18 04:24:57;;;;;;;11.17;9.97;;;;;;;13.98;86.78;101684.16;5010443;28;20279;-76
2021/09/18 04:27:22;;;;;;;10.90;9.40;;;;;;;14.00;85.82;101679.03;5011980;28;20223;-77
2021/09/18 04:29:47;;;;;;;11.13;9.03;;;;;;;14.00;86.28;101684.19;4994330;28;20278;-77
2021/09/18 04:32:13;;;;;;;12.53;9.97;;;;;;;13.99;86.57;101688.44;5012708;28;20183;-77
2021/09/18 04:34:38;;;;;;;11.70;9.87;;;;;;;14.00;86.77;101686.75;4994811;28;20192;-77
2021/09/18 04:37:03;;;;;;;11.13;9.90;;;;;;;14.01;86.27;101688.50;4994771;28;20198;-77
2021/09/18 04:39:28;;;;;;;10.10;8.97;;;;;;;14.01;86.97;101694.53;4995247;28;20187;-77
2021/09/18 04:41:54;;;;;;;11.73;9.37;;;;;;;14.02;86.84;101687.63;5012642;28;20204;-77
2021/09/18 04:44:19;;;;;;;12.03;9.47;;;;;;;14.06;86.68;101697.16;5011586;28;20192;-76
2021/09/18 04:46:45;;;;;;;10.80;9.10;;;;;;;14.05;86.10;101698.00;5012599;28;20187;-77
2021/09/18 04:49:10;;;;;;;10.77;9.40;;;;;;;14.05;86.26;101700.59;5011967;28;20675;-77
2021/09/18 04:51:36;;;;;;;12.13;9.27;;;;;;;14.07;86.58;101707.50;5011909;28;20199;-77
2021/09/18 04:54:02;;;;;;;10.60;9.07;;;;;;;14.07;85.82;101699.78;5011895;28;20187;-77
2021/09/18 04:56:27;;;;;;;11.23;9.47;;;;;;;14.09;85.94;101702.38;5012009;28;20187;-77
2021/09/18 04:58:53;;;;;;;10.47;9.37;;;;;;;14.10;87.00;101714.41;5011827;28;20294;-77
2021/09/18 05:01:18;;;;;;;13.20;9.93;;;;;;;14.10;86.65;101709.28;5013618;28;20265;-76
2021/09/18 05:03:43;;;;;;;12.13;10.33;;;;;;;14.11;86.80;101713.56;5014295;28;20198;-76
2021/09/18 05:06:09;;;;;;;11.33;9.43;;;;;;;14.11;87.16;101708.41;5017750;28;20176;-76
2021/09/18 05:08:34;;;;;;;11.57;9.87;;;;;;;14.10;86.83;101710.16;5016677;28;20194;-77
2021/09/18 05:10:59;;;;;;;14.97;10.93;;;;;;;14.12;86.68;101713.59;5016651;28;20225;-77
2021/09/18 05:13:25;;;;;;;12.77;9.97;;;;;;;14.12;86.43;101716.19;5016241;28;20656;-77
2021/09/18 05:15:50;;;;;;;13.27;10.43;;;;;;;14.13;86.48;101712.75;5017338;28;20184;-77
2021/09/18 05:18:15;;;;;;;11.93;10.30;;;;;;;14.13;86.63;101707.59;4999796;28;20226;-77
2021/09/18 05:20:41;;;;;;;12.37;10.37;;;;;;;14.15;86.61;101713.69;5016220;28;20215;-77
2021/09/18 05:23:06;;;;;;;12.97;10.83;;;;;;;14.18;86.84;101712.88;5016938;28;20249;-77
2021/09/18 05:25:31;;;;;;;12.30;10.57;;;;;;;14.20;86.62;101724.97;5015706;28;20187;-77
2021/09/18 05:27:57;;;;;;;11.77;10.53;;;;;;;14.21;87.10;101726.69;5017616;28;20266;-77
2021/09/18 05:30:22;;;;;;;14.77;10.70;;;;;;;14.24;86.55;101731.03;5017843;28;20215;-77
2021/09/18 05:32:47;;;;;;;14.17;10.63;;;;;;;14.23;86.48;101729.31;5016092;28;20273;-77
2021/09/18 05:35:13;;;;;;;12.90;10.57;;;;;;;14.27;86.58;101728.53;5017342;28;20199;-77
2021/09/18 05:37:38;;;;;;;12.77;10.73;;;;;;;14.30;86.29;101736.28;5016442;28;20440;-77
2021/09/18 05:40:04;;;;;;;12.47;10.47;;;;;;;14.32;86.93;101732.91;5000284;28;20551;-77
2021/09/18 05:42:30;;;;;;;14.87;10.43;;;;;;;14.35;86.46;101734.66;5017881;28;20706;-77
2021/09/18 05:44:55;;;;;;;11.97;10.60;;;;;;;14.40;86.42;101735.63;5016696;28;20191;-77
2021/09/18 05:47:20;;;;;;;12.80;10.90;;;;;;;14.42;86.22;101737.41;5015771;28;20176;-77
2021/09/18 05:49:45;;;;;;;13.47;10.80;;;;;;;14.45;86.21;101727.13;5016441;28;20187;-77
2021/09/18 05:52:11;;;;;;;13.30;10.93;;;;;;;14.50;86.29;101724.66;4999955;28;20237;-77
2021/09/18 05:54:36;;;;;;;13.10;11.13;;;;;;;14.52;85.85;101734.16;5018369;28;20233;-77
2021/09/18 05:57:02;;;;;;;12.57;10.13;;;;;;;14.58;85.62;101729.09;4999859;28;20195;-77
2021/09/18 05:59:27;;;;;;;12.90;10.37;;;;;;;14.64;85.78;101728.34;5018208;28;20234;-77
2021/09/18 06:01:52;;;;;;;11.67;10.47;;;;;;;14.72;84.83;101732.78;5016557;28;20889;-77
2021/09/18 06:04:18;;;;;;;11.63;10.43;;;;;;;14.79;85.75;101734.63;5000761;28;20187;-77
2021/09/18 06:06:43;;;;;;;12.53;10.17;;;;;;;14.85;84.63;101736.41;5016734;28;20195;-77
2021/09/18 06:09:08;;;;;;;11.90;10.47;;;;;;;14.85;84.63;101736.41;5016055;28;20210;-77
2021/09/18 06:11:34;;;;;;;13.33;10.10;;;;;;;14.85;84.69;101741.56;5017086;28;20200;-76
2021/09/18 06:13:59;;;;;;;13.43;10.73;;;;;;;14.85;84.84;101749.31;5016383;28;20286;-77
2021/09/18 06:16:25;;;;;;;11.57;10.07;;;;;;;14.85;85.36;101747.63;5018222;28;20219;-77
2021/09/18 06:18:51;;;;;;;12.73;9.93;;;;;;;14.98;85.27;101741.81;5018655;28;20211;-77
2021/09/18 06:21:17;;;;;;;12.37;9.40;;;;;;;15.13;84.36;101743.75;5017096;28;20629;-76
2021/09/18 06:23:42;;;;;;;12.83;10.30;;;;;;;15.24;84.37;101745.66;5017209;28;20187;-77
2021/09/18 06:26:08;;;;;;;10.37;9.37;;;;;;;15.32;84.01;101745.75;5016620;28;20194;-77
2021/09/18 06:28:35;;;;;;;13.37;10.43;;;;;;;15.20;85.13;101753.34;5017480;28;20218;-77
2021/09/18 06:31:01;;;;;;;11.50;10.30;;;;;;;15.06;85.24;101758.25;5016841;28;20211;-76
2021/09/18 06:33:26;;;;;;;11.63;8.90;;;;;;;15.05;84.95;101756.53;5016678;28;20191;-77
2021/09/18 06:35:51;;;;;;;11.07;9.37;;;;;;;15.15;84.18;101757.56;5016032;28;20254;-77
2021/09/18 06:38:21;;;;;;;11.43;8.87;;;;;;;15.26;84.25;101759.47;5000166;28;20222;-77
2021/09/18 06:40:49;;;;;;;12.23;9.60;;;;;;;15.42;84.04;101761.44;5017637;28;20207;-76
2021/09/18 06:43:14;;;;;;;11.33;9.60;;;;;;;15.45;83.23;101766.66;5016831;28;20281;-77
2021/09/18 06:45:40;;;;;;;10.53;8.77;;;;;;;15.57;83.51;101764.22;5000093;28;20658;-76
2021/09/18 06:48:05;;;;;;;9.47;8.30;;;;;;;15.67;83.04;101768.69;5017334;28;20550;-77
2021/09/18 06:50:30;;;;;;;10.47;8.40;;;;;;;15.68;83.16;101756.63;5017976;28;20233;-77
2021/09/18 06:52:56;;;;;;;9.93;7.67;;;;;;;15.76;82.47;101763.66;5015908;28;20277;-77
2021/09/18 06:55:21;;;;;;;8.30;7.27;;;;;;;15.79;82.63;101768.84;5017406;28;20262;-76
2021/09/18 06:57:47;;;;;;;8.20;6.77;;;;;;;15.83;82.30;101764.56;5015744;28;20226;-76
2021/09/18 07:00:12;;;;;;;9.50;7.30;;;;;;;15.90;82.53;101762.13;5017035;28;20226;-76
2021/09/18 07:02:38;;;;;;;10.07;7.07;;;;;;;15.95;81.79;101768.22;5015405;28;20258;-77
2021/09/18 07:05:04;;;;;;;8.57;6.83;;;;;;;16.03;82.14;101773.47;5017657;28;20191;-76
2021/09/18 07:07:30;;;;;;;6.93;6.17;;;;;;;16.04;82.28;101777.78;4998789;28;20194;-78
2021/09/18 07:09:57;;;;;;;6.70;6.00;;;;;;;16.12;82.03;101769.25;4998573;28;20583;-78
2021/09/18 07:12:22;;;;;;;6.63;5.80;;;;;;;16.32;82.04;101779.81;4998052;28;20187;-78
2021/09/18 07:14:48;;;;;;;7.73;6.20;;;;;;;16.50;81.24;101775.78;4998939;28;20251;-78
2021/09/18 07:17:13;;;;;;;6.80;5.27;;;;;;;16.65;80.68;101781.09;5014296;28;20298;-76
2021/09/18 07:19:38;;;;;;;8.33;5.73;;;;;;;17.00;79.47;101773.66;5015593;28;20191;-78
2021/09/18 07:22:04;;;;;;;6.23;5.10;;;;;;;17.16;78.44;101775.47;5017532;28;20700;-77
2021/09/18 07:24:32;;;;;;;6.23;4.67;;;;;;;17.02;78.59;101782.28;5015711;28;20218;-77
2021/09/18 07:26:58;;;;;;;6.67;3.90;;;;;;;17.02;78.54;101777.97;5016712;28;20278;-77
2021/09/18 07:29:24;;;;;;;4.57;4.17;;;;;;;17.02;78.87;101775.38;5016328;28;20245;-76
2021/09/18 07:31:49;;;;;;;4.67;3.87;;;;;;;17.13;78.27;101783.25;5017735;28;20207;-76
2021/09/18 07:34:15;;;;;;;4.90;3.97;;;;;;;17.20;78.57;101785.88;5016707;28;20190;-76
2021/09/18 07:36:40;;;;;;;5.80;3.53;;;;;;;17.33;78.27;101777.38;5017022;28;20212;-77
2021/09/18 07:39:06;;;;;;;4.47;3.07;;;;;;;17.33;77.98;101777.38;5016230;28;20214;-76
2021/09/18 07:41:31;;;;;;;6.10;3.03;;;;;;;17.26;79.32;101778.16;5015481;28;20213;-77
2021/09/18 07:44:00;;;;;;;3.80;2.30;;;;;;;17.22;78.68;101776.41;5016074;28;20391;-76
2021/09/18 07:46:26;;;;;;;6.17;2.80;;;;;;;17.31;78.28;101781.66;5015593;28;20188;-76
2021/09/18 07:48:52;;;;;;;4.33;2.40;;;;;;;17.60;77.90;101787.91;4999403;28;20191;-76
2021/09/18 07:51:17;;;;;;;3.53;2.40;;;;;;;17.81;76.29;101785.44;5014745;28;20269;-77
2021/09/18 07:53:42;;;;;;;2.83;1.60;;;;;;;17.61;76.08;101783.59;5016926;28;20187;-76
2021/09/18 07:56:09;;;;;;;3.00;2.40;;;;;;;17.75;77.14;101792.31;5016480;28;20218;-76
2021/09/18 07:58:34;;;;;;;3.27;1.90;;;;;;;18.38;74.34;101790.03;5015191;28;20306;-76
2021/09/18 08:00:59;;;;;;;2.30;1.60;;;;;;;19.06;71.33;101785.78;5014962;28;20242;-76
2021/09/18 08:03:25;;;;;;;2.20;1.57;;;;;;;19.05;70.96;101791.84;5015098;28;20202;-76
2021/09/18 08:05:50;;;;;;;1.87;1.40;;;;;;;18.97;71.15;101789.25;4998758;28;20183;-76
2021/09/18 08:08:15;;;;;;;2.00;1.40;;;;;;;18.69;72.13;101791.81;5015864;28;20194;-76
2021/09/18 08:10:41;;;;;;;1.40;1.30;;;;;;;18.36;72.52;101786.56;5014891;28;20358;-76
2021/09/18 08:13:06;;;;;;;1.50;1.30;;;;;;;18.66;72.11;101795.28;5015681;28;20191;-76
2021/09/18 08:15:32;;;;;;;2.60;1.27;;;;;;;19.34;69.93;101793.59;5015755;28;20187;-76
2021/09/18 08:17:57;;;;;;;1.60;1.20;;;;;;;19.98;67.28;101791.72;5014696;28;20219;-77
2021/09/18 08:20:22;;;;;;;1.83;1.30;;;;;;;20.18;66.96;101787.34;5014994;28;20220;-76
2021/09/18 08:22:48;;;;;;;1.63;1.10;;;;;;;20.65;66.05;101799.22;5014432;28;20180;-77
2021/09/18 08:25:14;;;;;;;1.70;1.00;;;;;;;20.77;64.31;101783.50;5016458;28;20191;-77
2021/09/18 08:27:40;;;;;;;0.77;0.73;;;;;;;20.47;65.10;101788.03;4997782;28;20190;-77
2021/09/18 08:30:06;;;;;;;2.17;0.83;;;;;;;19.94;66.90;101792.63;5014034;28;20238;-76
2021/09/18 08:32:32;;;;;;;1.83;1.00;;;;;;;19.93;68.14;101796.94;5014548;28;20198;-76
2021/09/18 08:34:57;;;;;;;1.33;0.77;;;;;;;19.68;65.90;101795.28;5013633;28;20195;-77
2021/09/18 08:37:22;;;;;;;2.03;1.00;;;;;;;19.76;67.08;101793.50;5014254;28;20247;-77
2021/09/18 08:39:48;;;;;;;1.93;0.80;;;;;;;19.75;66.97;101797.00;5016294;28;20184;-77
2021/09/18 08:42:15;;;;;;;0.83;0.83;;;;;;;19.52;68.27;101801.38;5019057;28;20184;-77
2021/09/18 08:44:40;;;;;;;1.97;0.90;;;;;;;19.25;67.42;101800.56;5000848;28;20664;-77
2021/09/18 08:47:05;;;;;;;3.17;0.90;;;;;;;18.95;69.52;101803.09;5017958;28;20188;-77
2021/09/18 08:49:31;;;;;;;2.03;0.80;;;;;;;18.80;70.22;101813.47;5018984;28;20665;-77
2021/09/18 08:51:57;;;;;;;1.23;1.00;;;;;;;18.84;69.63;101810.03;5019191;28;20581;-77
2021/09/18 08:54:22;;;;;;;0.93;0.90;;;;;;;18.79;70.31;101819.53;5001472;28;20202;-77
2021/09/18 08:56:47;;;;;;;1.60;1.07;;;;;;;18.79;70.42;101816.94;5017148;28;20187;-77
2021/09/18 08:59:13;;;;;;;1.93;1.10;;;;;;;18.88;70.39;101822.16;5018533;28;20222;-78
2021/09/18 09:01:38;;;;;;;1.67;0.90;;;;;;;18.79;70.78;101819.53;5016862;28;20211;-78
2021/09/18 09:04:09;;;;;;;1.33;0.90;;;;;;;18.81;71.41;101823.00;5017850;28;20612;-77
2021/09/18 09:06:52;;;;;;;1.10;1.00;;;;;;;18.64;72.63;101829.88;5018077;28;20179;-77
2021/09/18 09:09:18;;;;;;;2.10;1.20;;;;;;;18.39;75.86;101838.44;5018713;28;20182;-77
2021/09/18 09:11:48;;;;;;;1.30;1.20;;;;;;;18.29;75.91;101837.50;5018305;28;20293;-77
2021/09/18 09:14:14;;;;;;;1.37;1.00;;;;;;;18.07;77.12;101843.47;5017670;28;20282;-77
2021/09/18 09:16:58;;;;;;;3.97;1.10;;;;;;;18.64;76.05;101837.66;5000306;28;20279;-77
2021/09/18 09:19:24;;;;;;;1.40;1.00;;;;;;;19.11;74.62;101831.69;5017083;28;20215;-77
2021/09/18 09:21:53;;;;;;;1.50;1.20;;;;;;;19.33;73.19;101828.25;5016806;28;20218;-77
2021/09/18 09:24:22;;;;;;;1.37;1.17;;;;;;;19.45;72.48;101824.78;5001176;28;20214;-78
2021/09/18 09:27:15;;;;;;;1.33;1.00;;;;;;;19.35;72.78;101821.31;5016056;28;20195;-78
2021/09/18 09:29:52;;;;;;;1.10;1.00;;;;;;;19.20;73.19;101830.84;5000113;28;20616;-78
2021/09/18 09:32:38;;;;;;;1.97;0.90;;;;;;;18.99;74.62;101833.41;5016915;28;20211;-78
2021/09/18 09:35:10;;;;;;;1.70;0.90;;;;;;;18.42;75.85;101835.88;5017348;28;20199;-78
2021/09/18 09:37:35;;;;;;;1.60;1.00;;;;;;;18.11;76.59;101845.22;5016516;28;20243;-78
2021/09/18 09:40:03;;;;;;;0.83;0.70;;;;;;;18.13;77.35;101846.09;5016282;28;20302;-78
2021/09/18 09:42:32;;;;;;;0.73;0.73;;;;;;;18.26;77.48;101841.81;4999200;28;20215;-79
2021/09/18 09:45:08;;;;;;;2.40;1.00;;;;;;;18.66;75.83;101849.75;5016741;28;20203;-78
2021/09/18 09:47:34;;;;;;;2.63;0.77;;;;;;;19.31;74.71;101843.00;5015334;28;20187;-79
2021/09/18 09:49:59;;;;;;;0.63;0.63;;;;;;;19.96;72.56;101835.94;5014805;28;20214;-79
2021/09/18 09:52:26;;;;;;;1.63;0.80;;;;;;;20.28;71.34;101841.06;5016919;28;20179;-78
2021/09/18 09:54:55;;;;;;;1.63;1.37;;;;;;;20.61;70.85;101839.16;5017712;28;20198;-76
2021/09/18 09:57:21;;;;;;;0.80;0.80;;;;;;;20.54;69.45;101834.84;5016539;28;20187;-76
2021/09/18 09:59:47;;;;;;;0.90;0.70;;;;;;;20.65;69.78;101847.81;5017568;28;20202;-76
2021/09/18 10:02:13;;;;;;;1.03;0.80;;;;;;;20.34;71.28;101846.22;5016364;28;20266;-78
2021/09/18 10:04:39;;;;;;;0.53;0.53;;;;;;;20.27;70.95;101841.94;5017259;28;20254;-78
2021/09/18 10:07:06;;;;;;;1.30;0.80;;;;;;;20.35;70.72;101845.34;5017072;28;20183;-77
2021/09/18 10:09:34;;;;;;;1.10;1.00;;;;;;;19.87;71.71;101850.69;5000057;28;20192;-77
2021/09/18 10:11:59;;;;;;;2.23;0.90;;;;;;;19.70;72.26;101849.84;5015670;28;20191;-77
2021/09/18 10:14:27;;;;;;;1.83;1.10;;;;;;;23.39;62.50;101856.16;5016127;28;20250;-77
2021/09/18 10:16:56;;;;;;;0.80;0.77;;;;;;;29.28;46.68;101828.25;4999762;28;20187;-78
2021/09/18 10:19:33;;;;;;;1.25;1.15;;;;;;;31.54;41.38;101810.53;4999582;28;20214;-78
2021/09/18 10:24:43;;;;;;;0.80;0.80;;;;;;;22.97;59.72;101831.50;5017862;28;20203;-77
2021/09/18 10:27:21;;;;;;;1.45;0.80;;;;;;;21.97;62.67;101842.41;5015554;28;20273;-77
2021/09/18 10:29:47;;;;;;;0.95;0.80;;;;;;;21.12;65.20;101844.06;5015325;28;20195;-77
2021/09/18 10:32:12;;;;;;;1.27;0.90;;;;;;;20.84;66.02;101836.41;5014915;28;20200;-76
2021/09/18 10:34:38;;;;;;;1.30;0.90;;;;;;;20.44;67.75;101837.50;5016209;28;20220;-77
2021/09/18 10:37:04;;;;;;;2.47;1.10;;;;;;;20.18;68.41;101844.56;5015770;28;20238;-77
2021/09/18 10:39:29;;;;;;;1.60;0.87;;;;;;;20.01;68.48;101836.78;5014800;28;20253;-77
2021/09/18 10:41:58;;;;;;;1.50;1.10;;;;;;;19.77;68.72;101849.84;5014667;28;20871;-77
2021/09/18 10:44:43;;;;;;;1.20;1.00;;;;;;;19.58;69.53;101852.50;5014160;28;20191;-77
2021/09/18 10:47:09;;;;;;;0.93;0.80;;;;;;;19.19;71.95;101855.03;5014263;28;20203;-77
2021/09/18 10:49:37;;;;;;;2.40;1.00;;;;;;;19.41;71.94;101859.41;5015374;28;20275;-76
2021/09/18 10:52:30;;;;;;;2.43;1.10;;;;;;;18.83;72.80;101868.00;5014171;28;20714;-78
2021/09/18 10:57:39;;;;;;;2.17;0.70;;;;;;;19.10;72.74;101868.03;5014394;28;20809;-76
2021/09/18 11:00:17;;;;;;;1.27;0.83;;;;;;;19.00;71.89;101871.47;5014253;28;20211;-76
2021/09/18 11:02:48;;;;;;;1.83;0.63;;;;;;;19.14;72.27;101869.75;5014990;28;20742;-77
2021/09/18 11:05:16;;;;;;;1.37;0.80;;;;;;;19.38;72.08;101867.19;5014689;28;20263;-77
2021/09/18 11:07:55;;;;;;;0.90;0.70;;;;;;;19.42;72.44;101872.41;5015145;28;20199;-77
2021/09/18 11:10:20;;;;;;;2.40;0.80;;;;;;;19.28;70.57;101874.16;5013744;28;20269;-77
2021/09/18 11:13:07;;;;;;;0.73;0.70;;;;;;;19.50;70.25;101872.41;4997780;28;20183;-77
2021/09/18 11:15:44;;;;;;;1.27;1.00;;;;;;;19.81;69.11;101867.16;5013717;28;20187;-77
2021/09/18 11:18:14;;;;;;;1.57;0.90;;;;;;;20.35;67.41;101867.03;5015900;28;20211;-78
2021/09/18 11:20:40;;;;;;;0.90;0.70;;;;;;;20.24;67.08;101868.84;5013510;28;20221;-78
2021/09/18 11:23:05;;;;;;;1.60;0.97;;;;;;;19.78;68.89;101872.38;5015213;28;20180;-78
2021/09/18 11:25:45;;;;;;;1.33;0.90;;;;;;;19.58;68.81;101862.88;4997495;28;20198;-77